logo
Search for airport 
image banner adimage banner adimage banner ad
image banner ad

ETOU - Wiesbaden Aaf

Located in Wiesbaden, Germany

ICAO - ETOU, IATA - WIE

Data provided by Airmate  

General information

Coordinates: N50°2'59" E8°19'32"
Elevation is 460 feet MSL.
Magnetic variation is 3.24° East
View others Airports in Hesse

Operational data

Special qualification required
Current time UTC:
Current local time:
Weather
METAR: ETOU 170555Z AUTO 31003KT 9999 FEW080 06/03 A2983 RMK AO2 SLP107 60005 T00550030 10071 20052 52016
TAF: TAF ETOU 170400Z 1704/1810 30009KT 9999 OVC050 QNH2972INS BECMG 1706/1707 34009KT 9999 FEW030 BKN040 QNH2982INS TEMPO 1712/1718 34010G15KT 9000 -SHRA BKN030 BECMG 1718/1719 33006KT 9999 SCT020 BKN030 QNH2984INS TX10/1715Z TN05/1705Z
View NOTAMs / SUP AIP / TFR affecting this airport [VIEW]
Communications frequencies: [VIEW]

Runways:

RWY identifierQFULength (ft)Width (ft)SurfaceLDA (ft)
0773°7069120ASPH7069
25253°7069120ASPH6934

Airport contact information

Address: Wiesbaden Germany

Satellite view of ETOU